sensor_id;sensor_type;location;lat;lon;timestamp;pressure;altitude;pressure_sealevel;temperature;humidity
30339;BME280;795;49.296;11.348;2022-12-18T00:01:36;97492.25;;;-8.87;100.00
30339;BME280;795;49.296;11.348;2022-12-18T00:04:20;97498.44;;;-8.94;100.00
30339;BME280;795;49.296;11.348;2022-12-18T00:06:48;97501.47;;;-9.20;100.00
30339;BME280;795;49.296;11.348;2022-12-18T00:09:15;97508.53;;;-9.29;100.00
30339;BME280;795;49.296;11.348;2022-12-18T00:11:42;97510.28;;;-9.30;100.00
30339;BME280;795;49.296;11.348;2022-12-18T00:14:12;97507.56;;;-9.22;100.00
30339;BME280;795;49.296;11.348;2022-12-18T00:16:43;97508.66;;;-9.37;100.00
30339;BME280;795;49.296;11.348;2022-12-18T00:19:12;97514.00;;;-9.44;100.00
30339;BME280;795;49.296;11.348;2022-12-18T00:21:41;97524.25;;;-9.37;100.00
30339;BME280;795;49.296;11.348;2022-12-18T00:24:10;97517.34;;;-9.38;100.00
30339;BME280;795;49.296;11.348;2022-12-18T00:26:39;97512.88;;;-9.28;100.00
30339;BME280;795;49.296;11.348;2022-12-18T00:29:13;97507.72;;;-9.31;100.00
30339;BME280;795;49.296;11.348;2022-12-18T00:31:42;97518.31;;;-9.47;100.00
30339;BME280;795;49.296;11.348;2022-12-18T00:34:13;97514.19;;;-9.61;100.00
30339;BME280;795;49.296;11.348;2022-12-18T00:36:41;97501.66;;;-9.93;100.00
30339;BME280;795;49.296;11.348;2022-12-18T00:39:11;97507.88;;;-10.06;100.00
30339;BME280;795;49.296;11.348;2022-12-18T00:41:39;97497.56;;;-10.10;100.00
30339;BME280;795;49.296;11.348;2022-12-18T00:44:24;97507.28;;;-9.61;100.00
30339;BME280;795;49.296;11.348;2022-12-18T00:46:51;97512.19;;;-9.41;100.00
30339;BME280;795;49.296;11.348;2022-12-18T00:49:20;97518.16;;;-9.33;100.00
30339;BME280;795;49.296;11.348;2022-12-18T00:51:48;97512.16;;;-9.38;100.00
30339;BME280;795;49.296;11.348;2022-12-18T00:54:16;97510.50;;;-9.43;100.00
30339;BME280;795;49.296;11.348;2022-12-18T00:56:44;97506.22;;;-9.48;100.00
30339;BME280;795;49.296;11.348;2022-12-18T00:59:17;97502.84;;;-9.54;100.00
30339;BME280;795;49.296;11.348;2022-12-18T01:01:45;97506.31;;;-9.52;100.00
30339;BME280;795;49.296;11.348;2022-12-18T01:04:13;97503.78;;;-9.57;100.00
30339;BME280;795;49.296;11.348;2022-12-18T01:06:40;97505.41;;;-9.50;100.00
30339;BME280;795;49.296;11.348;2022-12-18T01:09:07;97503.63;;;-9.49;100.00
30339;BME280;795;49.296;11.348;2022-12-18T01:11:34;97507.94;;;-9.47;100.00
30339;BME280;795;49.296;11.348;2022-12-18T01:14:01;97505.34;;;-9.45;100.00
30339;BME280;795;49.296;11.348;2022-12-18T01:16:28;97512.00;;;-9.29;100.00
30339;BME280;795;49.296;11.348;2022-12-18T01:18:58;97521.44;;;-9.20;100.00
30339;BME280;795;49.296;11.348;2022-12-18T01:21:25;97521.34;;;-9.16;100.00
30339;BME280;795;49.296;11.348;2022-12-18T01:23:55;97533.50;;;-9.16;100.00
30339;BME280;795;49.296;11.348;2022-12-18T01:26:24;97534.34;;;-9.16;100.00
30339;BME280;795;49.296;11.348;2022-12-18T01:28:53;97543.06;;;-9.20;100.00
30339;BME280;795;49.296;11.348;2022-12-18T01:31:33;97543.16;;;-9.27;100.00
30339;BME280;795;49.296;11.348;2022-12-18T01:34:02;97563.03;;;-9.22;100.00
30339;BME280;795;49.296;11.348;2022-12-18T01:36:34;97548.06;;;-9.08;100.00
30339;BME280;795;49.296;11.348;2022-12-18T01:39:10;97552.28;;;-8.99;100.00
30339;BME280;795;49.296;11.348;2022-12-18T01:41:38;97553.00;;;-8.90;100.00
30339;BME280;795;49.296;11.348;2022-12-18T01:45:00;97558.00;;;-8.77;100.00
30339;BME280;795;49.296;11.348;2022-12-18T01:50:34;97557.69;;;-8.59;100.00
30339;BME280;795;49.296;11.348;2022-12-18T01:53:19;97562.81;;;-8.55;100.00
30339;BME280;795;49.296;11.348;2022-12-18T01:55:53;97559.28;;;-8.52;100.00
30339;BME280;795;49.296;11.348;2022-12-18T01:58:37;97567.81;;;-8.43;100.00
30339;BME280;795;49.296;11.348;2022-12-18T02:01:06;97564.09;;;-8.30;100.00
30339;BME280;795;49.296;11.348;2022-12-18T02:03:33;97570.94;;;-8.24;100.00
30339;BME280;795;49.296;11.348;2022-12-18T02:09:12;97561.19;;;-8.15;100.00
30339;BME280;795;49.296;11.348;2022-12-18T02:12:16;97557.69;;;-8.14;100.00
30339;BME280;795;49.296;11.348;2022-12-18T02:15:09;97554.94;;;-8.06;100.00
30339;BME280;795;49.296;11.348;2022-12-18T02:18:19;97549.63;;;-8.00;100.00
30339;BME280;795;49.296;11.348;2022-12-18T02:21:50;97550.31;;;-7.92;100.00
30339;BME280;795;49.296;11.348;2022-12-18T02:27:23;97560.56;;;-7.83;100.00
30339;BME280;795;49.296;11.348;2022-12-18T02:29:56;97570.00;;;-7.76;100.00
30339;BME280;795;49.296;11.348;2022-12-18T02:32:39;97567.16;;;-7.65;100.00
30339;BME280;795;49.296;11.348;2022-12-18T02:35:17;97571.28;;;-7.55;100.00
30339;BME280;795;49.296;11.348;2022-12-18T02:37:47;97573.00;;;-7.54;100.00
30339;BME280;795;49.296;11.348;2022-12-18T02:40:17;97566.72;;;-7.46;100.00
30339;BME280;795;49.296;11.348;2022-12-18T02:42:44;97558.84;;;-7.43;100.00
30339;BME280;795;49.296;11.348;2022-12-18T02:45:10;97552.59;;;-7.35;100.00
30339;BME280;795;49.296;11.348;2022-12-18T02:47:46;97553.38;;;-7.30;100.00
30339;BME280;795;49.296;11.348;2022-12-18T02:50:35;97544.56;;;-7.26;100.00
30339;BME280;795;49.296;11.348;2022-12-18T02:54:14;97543.41;;;-7.13;100.00
30339;BME280;795;49.296;11.348;2022-12-18T02:56:58;97552.88;;;-7.08;100.00
30339;BME280;795;49.296;11.348;2022-12-18T02:59:41;97557.91;;;-7.00;100.00
30339;BME280;795;49.296;11.348;2022-12-18T03:02:37;97578.63;;;-6.94;100.00
30339;BME280;795;49.296;11.348;2022-12-18T03:05:22;97583.69;;;-6.87;100.00
30339;BME280;795;49.296;11.348;2022-12-18T03:08:01;97583.44;;;-6.78;100.00
30339;BME280;795;49.296;11.348;2022-12-18T03:10:39;97579.06;;;-6.76;100.00
30339;BME280;795;49.296;11.348;2022-12-18T03:13:33;97581.59;;;-6.72;100.00
30339;BME280;795;49.296;11.348;2022-12-18T03:16:09;97572.00;;;-6.72;100.00
30339;BME280;795;49.296;11.348;2022-12-18T03:18:52;97577.06;;;-6.66;100.00
30339;BME280;795;49.296;11.348;2022-12-18T03:21:32;97567.50;;;-6.65;100.00
30339;BME280;795;49.296;11.348;2022-12-18T03:24:06;97567.47;;;-6.64;100.00
30339;BME280;795;49.296;11.348;2022-12-18T03:26:41;97552.63;;;-6.62;100.00
30339;BME280;795;49.296;11.348;2022-12-18T03:29:22;97556.84;;;-6.56;100.00
30339;BME280;795;49.296;11.348;2022-12-18T03:32:02;97556.72;;;-6.52;100.00
30339;BME280;795;49.296;11.348;2022-12-18T03:34:38;97557.53;;;-6.50;100.00
30339;BME280;795;49.296;11.348;2022-12-18T03:37:07;97559.09;;;-6.43;100.00
30339;BME280;795;49.296;11.348;2022-12-18T03:39:36;97572.94;;;-6.39;100.00
30339;BME280;795;49.296;11.348;2022-12-18T03:42:48;97576.25;;;-6.33;100.00
30339;BME280;795;49.296;11.348;2022-12-18T03:45:36;97589.44;;;-6.37;100.00
30339;BME280;795;49.296;11.348;2022-12-18T03:48:20;97587.66;;;-6.35;100.00
30339;BME280;795;49.296;11.348;2022-12-18T03:51:08;97592.88;;;-6.37;100.00
30339;BME280;795;49.296;11.348;2022-12-18T03:53:59;97590.13;;;-6.31;100.00
30339;BME280;795;49.296;11.348;2022-12-18T03:56:35;97578.91;;;-6.34;100.00
30339;BME280;795;49.296;11.348;2022-12-18T03:59:06;97576.25;;;-6.33;100.00
30339;BME280;795;49.296;11.348;2022-12-18T04:01:46;97585.81;;;-6.32;100.00
30339;BME280;795;49.296;11.348;2022-12-18T04:04:18;97593.69;;;-6.33;100.00
30339;BME280;795;49.296;11.348;2022-12-18T04:06:48;97590.09;;;-6.29;100.00
30339;BME280;795;49.296;11.348;2022-12-18T04:09:16;97594.38;;;-6.27;100.00
30339;BME280;795;49.296;11.348;2022-12-18T04:11:43;97592.59;;;-6.25;100.00
30339;BME280;795;49.296;11.348;2022-12-18T04:14:11;97602.22;;;-6.27;100.00
30339;BME280;795;49.296;11.348;2022-12-18T04:16:44;97605.81;;;-6.31;100.00
30339;BME280;795;49.296;11.348;2022-12-18T04:19:10;97609.28;;;-6.30;100.00
30339;BME280;795;49.296;11.348;2022-12-18T04:21:37;97604.03;;;-6.29;100.00
30339;BME280;795;49.296;11.348;2022-12-18T04:24:04;97602.28;;;-6.28;100.00
30339;BME280;795;49.296;11.348;2022-12-18T04:26:31;97602.28;;;-6.28;100.00
30339;BME280;795;49.296;11.348;2022-12-18T04:28:58;97606.50;;;-6.23;100.00
30339;BME280;795;49.296;11.348;2022-12-18T04:31:25;97603.88;;;-6.23;100.00
30339;BME280;795;49.296;11.348;2022-12-18T04:33:52;97606.41;;;-6.20;100.00
30339;BME280;795;49.296;11.348;2022-12-18T04:36:19;97608.88;;;-6.15;100.00
30339;BME280;795;49.296;11.348;2022-12-18T04:38:46;97609.75;;;-6.15;100.00
30339;BME280;795;49.296;11.348;2022-12-18T04:41:13;97610.53;;;-6.11;100.00
30339;BME280;795;49.296;11.348;2022-12-18T04:43:40;97622.63;;;-6.07;100.00
30339;BME280;795;49.296;11.348;2022-12-18T04:46:09;97619.16;;;-6.08;100.00
30339;BME280;795;49.296;11.348;2022-12-18T04:48:37;97610.25;;;-6.00;100.00
30339;BME280;795;49.296;11.348;2022-12-18T04:51:06;97612.91;;;-6.02;100.00
30339;BME280;795;49.296;11.348;2022-12-18T04:53:34;97619.16;;;-6.08;100.00
30339;BME280;795;49.296;11.348;2022-12-18T04:56:12;97612.22;;;-6.09;100.00
30339;BME280;795;49.296;11.348;2022-12-18T04:58:43;97614.03;;;-6.12;100.00
30339;BME280;795;49.296;11.348;2022-12-18T05:01:14;97612.25;;;-6.10;100.00
30339;BME280;795;49.296;11.348;2022-12-18T05:03:41;97617.59;;;-6.15;100.00
30339;BME280;795;49.296;11.348;2022-12-18T05:06:10;97622.69;;;-6.10;100.00
30339;BME280;795;49.296;11.348;2022-12-18T05:08:37;97621.75;;;-6.06;100.00
30339;BME280;795;49.296;11.348;2022-12-18T05:11:13;97625.03;;;-5.99;100.00
30339;BME280;795;49.296;11.348;2022-12-18T05:13:44;97625.03;;;-5.99;100.00
30339;BME280;795;49.296;11.348;2022-12-18T05:16:13;97621.63;;;-6.01;100.00
30339;BME280;795;49.296;11.348;2022-12-18T05:18:41;97618.06;;;-5.99;100.00
30339;BME280;795;49.296;11.348;2022-12-18T05:21:08;97624.03;;;-5.94;100.00
30339;BME280;795;49.296;11.348;2022-12-18T05:23:36;97623.13;;;-5.93;100.00
30339;BME280;795;49.296;11.348;2022-12-18T05:26:06;97617.88;;;-5.91;100.00
30339;BME280;795;49.296;11.348;2022-12-18T05:28:35;97623.22;;;-5.96;100.00
30339;BME280;795;49.296;11.348;2022-12-18T05:31:04;97621.28;;;-5.89;100.00
30339;BME280;795;49.296;11.348;2022-12-18T05:33:34;97629.03;;;-5.85;100.00
30339;BME280;795;49.296;11.348;2022-12-18T05:36:06;97613.22;;;-5.82;100.00
30339;BME280;795;49.296;11.348;2022-12-18T05:38:38;97619.31;;;-5.81;100.00
30339;BME280;795;49.296;11.348;2022-12-18T05:41:07;97627.16;;;-5.81;100.00
30339;BME280;795;49.296;11.348;2022-12-18T05:43:39;97620.31;;;-5.85;100.00
30339;BME280;795;49.296;11.348;2022-12-18T05:46:13;97616.81;;;-5.84;100.00
30339;BME280;795;49.296;11.348;2022-12-18T05:48:42;97622.75;;;-5.79;100.00
30339;BME280;795;49.296;11.348;2022-12-18T05:51:15;97614.84;;;-5.78;100.00
30339;BME280;795;49.296;11.348;2022-12-18T05:53:43;97616.56;;;-5.77;100.00
30339;BME280;795;49.296;11.348;2022-12-18T05:56:17;97613.84;;;-5.72;100.00
30339;BME280;795;49.296;11.348;2022-12-18T05:58:46;97614.69;;;-5.72;100.00
30339;BME280;795;49.296;11.348;2022-12-18T06:01:24;97626.91;;;-5.72;100.00
30339;BME280;795;49.296;11.348;2022-12-18T06:03:53;97621.63;;;-5.71;100.00
30339;BME280;795;49.296;11.348;2022-12-18T06:06:25;97622.53;;;-5.72;100.00
30339;BME280;795;49.296;11.348;2022-12-18T06:08:53;97627.72;;;-5.70;100.00
30339;BME280;795;49.296;11.348;2022-12-18T06:11:26;97634.69;;;-5.69;100.00
30339;BME280;795;49.296;11.348;2022-12-18T06:13:56;97635.50;;;-5.69;100.00
30339;BME280;795;49.296;11.348;2022-12-18T06:16:26;97639.81;;;-5.66;100.00
30339;BME280;795;49.296;11.348;2022-12-18T06:19:02;97645.94;;;-5.67;100.00
30339;BME280;795;49.296;11.348;2022-12-18T06:21:31;97641.47;;;-5.62;100.00
30339;BME280;795;49.296;11.348;2022-12-18T06:24:00;97652.72;;;-5.60;100.00
30339;BME280;795;49.296;11.348;2022-12-18T06:26:27;97654.34;;;-5.56;100.00
30339;BME280;795;49.296;11.348;2022-12-18T06:28:54;97660.41;;;-5.54;100.00
30339;BME280;795;49.296;11.348;2022-12-18T06:31:21;97655.16;;;-5.54;100.00
30339;BME280;795;49.296;11.348;2022-12-18T06:33:48;97675.22;;;-5.53;100.00
30339;BME280;795;49.296;11.348;2022-12-18T06:36:16;97661.22;;;-5.52;100.00
30339;BME280;795;49.296;11.348;2022-12-18T06:38:44;97658.69;;;-5.55;100.00
30339;BME280;795;49.296;11.348;2022-12-18T06:41:16;97659.59;;;-5.56;100.00
30339;BME280;795;49.296;11.348;2022-12-18T06:43:44;97656.16;;;-5.58;100.00
30339;BME280;795;49.296;11.348;2022-12-18T06:46:12;97657.09;;;-5.61;100.00
30339;BME280;795;49.296;11.348;2022-12-18T06:48:39;97660.53;;;-5.59;100.00
30339;BME280;795;49.296;11.348;2022-12-18T06:51:07;97656.22;;;-5.60;100.00
30339;BME280;795;49.296;11.348;2022-12-18T06:53:34;97659.72;;;-5.61;100.00
30339;BME280;795;49.296;11.348;2022-12-18T06:56:07;97665.81;;;-5.60;100.00
30339;BME280;795;49.296;11.348;2022-12-18T06:58:38;97670.97;;;-5.57;100.00
30339;BME280;795;49.296;11.348;2022-12-18T07:01:10;97667.56;;;-5.61;100.00
30339;BME280;795;49.296;11.348;2022-12-18T07:03:39;97670.22;;;-5.62;100.00
30339;BME280;795;49.296;11.348;2022-12-18T07:06:16;97678.88;;;-5.60;100.00
30339;BME280;795;49.296;11.348;2022-12-18T07:08:44;97672.88;;;-5.64;100.00
30339;BME280;795;49.296;11.348;2022-12-18T07:11:12;97675.47;;;-5.62;100.00
30339;BME280;795;49.296;11.348;2022-12-18T07:13:39;97671.13;;;-5.63;100.00
30339;BME280;795;49.296;11.348;2022-12-18T07:16:12;97676.19;;;-5.57;100.00
30339;BME280;795;49.296;11.348;2022-12-18T07:18:47;97673.53;;;-5.56;100.00
30339;BME280;795;49.296;11.348;2022-12-18T07:21:19;97679.31;;;-5.45;100.00
30339;BME280;795;49.296;11.348;2022-12-18T07:23:46;97664.66;;;-5.50;100.00
30339;BME280;795;49.296;11.348;2022-12-18T07:26:19;97674.19;;;-5.48;100.00
30339;BME280;795;49.296;11.348;2022-12-18T07:28:46;97668.03;;;-5.45;100.00
30339;BME280;795;49.296;11.348;2022-12-18T07:31:21;97670.63;;;-5.45;100.00
30339;BME280;795;49.296;11.348;2022-12-18T07:33:50;97671.44;;;-5.43;100.00
30339;BME280;795;49.296;11.348;2022-12-18T07:36:19;97671.25;;;-5.37;100.00
30339;BME280;795;49.296;11.348;2022-12-18T07:38:49;97671.13;;;-5.32;100.00
30339;BME280;795;49.296;11.348;2022-12-18T07:41:17;97665.75;;;-5.28;100.00
30339;BME280;795;49.296;11.348;2022-12-18T07:43:46;97662.44;;;-5.33;100.00
30339;BME280;795;49.296;11.348;2022-12-18T07:46:15;97673.13;;;-5.41;100.00
30339;BME280;795;49.296;11.348;2022-12-18T07:48:44;97680.91;;;-5.39;100.00
30339;BME280;795;49.296;11.348;2022-12-18T07:51:16;97691.91;;;-5.26;100.00
30339;BME280;795;49.296;11.348;2022-12-18T07:53:44;97683.94;;;-5.22;100.00
30339;BME280;795;49.296;11.348;2022-12-18T07:56:12;97691.88;;;-5.25;100.00
30339;BME280;795;49.296;11.348;2022-12-18T07:58:58;97704.94;;;-5.25;100.00
30339;BME280;795;49.296;11.348;2022-12-18T08:01:26;97704.59;;;-5.11;100.00
30339;BME280;795;49.296;11.348;2022-12-18T08:03:54;97713.59;;;-5.21;100.00
30339;BME280;795;49.296;11.348;2022-12-18T08:06:21;97702.19;;;-5.20;100.00
30339;BME280;795;49.296;11.348;2022-12-18T08:08:55;97714.69;;;-5.30;100.00
30339;BME280;795;49.296;11.348;2022-12-18T08:11:28;97714.06;;;-5.38;100.00
30339;BME280;795;49.296;11.348;2022-12-18T08:13:55;97708.81;;;-5.38;100.00
30339;BME280;795;49.296;11.348;2022-12-18T08:16:23;97704.66;;;-5.45;100.00
30339;BME280;795;49.296;11.348;2022-12-18T08:18:52;97700.84;;;-5.35;100.00
30339;BME280;795;49.296;11.348;2022-12-18T08:21:25;97701.78;;;-5.36;100.00
30339;BME280;795;49.296;11.348;2022-12-18T08:23:57;97698.03;;;-5.26;100.00
30339;BME280;795;49.296;11.348;2022-12-18T08:26:27;97706.69;;;-5.25;100.00
30339;BME280;795;49.296;11.348;2022-12-18T08:28:58;97715.50;;;-5.28;100.00
30339;BME280;795;49.296;11.348;2022-12-18T08:31:27;97715.25;;;-5.19;100.00
30339;BME280;795;49.296;11.348;2022-12-18T08:33:56;97713.31;;;-5.12;100.00
30339;BME280;795;49.296;11.348;2022-12-18T08:36:24;97722.78;;;-5.07;100.00
30339;BME280;795;49.296;11.348;2022-12-18T08:38:53;97727.00;;;-5.03;100.00
30339;BME280;795;49.296;11.348;2022-12-18T08:41:21;97725.22;;;-5.01;100.00
30339;BME280;795;49.296;11.348;2022-12-18T08:43:49;97733.19;;;-5.04;100.00
30339;BME280;795;49.296;11.348;2022-12-18T08:46:41;97731.09;;;-4.93;100.00
30339;BME280;795;49.296;11.348;2022-12-18T08:49:11;97728.78;;;-5.03;100.00
30339;BME280;795;49.296;11.348;2022-12-18T08:51:39;97724.88;;;-4.89;100.00
30339;BME280;795;49.296;11.348;2022-12-18T08:54:07;97733.31;;;-4.79;100.00
30339;BME280;795;49.296;11.348;2022-12-18T08:56:34;97720.22;;;-4.79;100.00
30339;BME280;795;49.296;11.348;2022-12-18T08:59:02;97725.06;;;-4.96;100.00
30339;BME280;795;49.296;11.348;2022-12-18T09:03:38;97728.56;;;-4.96;100.00
30339;BME280;795;49.296;11.348;2022-12-18T09:06:07;97727.47;;;-4.89;100.00
30339;BME280;795;49.296;11.348;2022-12-18T09:08:35;97726.59;;;-4.88;100.00
30339;BME280;795;49.296;11.348;2022-12-18T09:11:04;97719.44;;;-5.12;100.00
30339;BME280;795;49.296;11.348;2022-12-18T09:13:31;97717.47;;;-5.04;100.00
30339;BME280;795;49.296;11.348;2022-12-18T09:15:59;97715.47;;;-4.96;100.00
30339;BME280;795;49.296;11.348;2022-12-18T09:18:25;97716.97;;;-4.87;100.00
30339;BME280;795;49.296;11.348;2022-12-18T09:20:52;97718.75;;;-4.89;100.00
30339;BME280;795;49.296;11.348;2022-12-18T09:23:21;97728.13;;;-4.51;100.00
30339;BME280;795;49.296;11.348;2022-12-18T09:25:48;97722.66;;;-4.16;100.00
30339;BME280;795;49.296;11.348;2022-12-18T09:28:18;97728.59;;;-3.57;100.00
30339;BME280;795;49.296;11.348;2022-12-18T09:30:49;97716.88;;;-3.99;100.00
30339;BME280;795;49.296;11.348;2022-12-18T09:33:17;97724.47;;;-3.64;100.00
30339;BME280;795;49.296;11.348;2022-12-18T09:35:45;97724.03;;;-2.78;100.00
30339;BME280;795;49.296;11.348;2022-12-18T09:38:17;97719.66;;;-3.02;100.00
30339;BME280;795;49.296;11.348;2022-12-18T09:44:00;97700.84;;;-3.64;100.00
30339;BME280;795;49.296;11.348;2022-12-18T09:46:50;97691.81;;;-3.82;100.00
30339;BME280;795;49.296;11.348;2022-12-18T09:49:26;97682.63;;;-4.21;100.00
30339;BME280;795;49.296;11.348;2022-12-18T09:52:04;97685.28;;;-4.50;100.00
30339;BME280;795;49.296;11.348;2022-12-18T09:54:41;97682.06;;;-4.58;100.00
30339;BME280;795;49.296;11.348;2022-12-18T09:57:22;97681.78;;;-4.79;100.00
30339;BME280;795;49.296;11.348;2022-12-18T10:00:18;97682.50;;;-4.74;100.00
30339;BME280;795;49.296;11.348;2022-12-18T10:02:47;97677.47;;;-4.80;100.00
30339;BME280;795;49.296;11.348;2022-12-18T10:05:37;97685.75;;;-4.36;100.00
30339;BME280;795;49.296;11.348;2022-12-18T10:08:59;97680.50;;;-4.36;100.00
30339;BME280;795;49.296;11.348;2022-12-18T10:18:16;97687.78;;;-3.66;100.00
30339;BME280;795;49.296;11.348;2022-12-18T10:21:19;97678.56;;;-3.53;100.00
30339;BME280;795;49.296;11.348;2022-12-18T10:24:19;97680.38;;;-3.79;100.00
30339;BME280;795;49.296;11.348;2022-12-18T10:26:48;97673.75;;;-3.40;100.00
30339;BME280;795;49.296;11.348;2022-12-18T10:29:16;97666.41;;;-2.83;100.00
30339;BME280;795;49.296;11.348;2022-12-18T10:31:43;97668.63;;;-2.72;100.00
30339;BME280;795;49.296;11.348;2022-12-18T10:34:12;97662.19;;;-2.87;100.00
30339;BME280;795;49.296;11.348;2022-12-18T10:36:42;97650.72;;;-2.86;100.00
30339;BME280;795;49.296;11.348;2022-12-18T10:39:23;97651.53;;;-3.30;100.00
30339;BME280;795;49.296;11.348;2022-12-18T10:41:51;97636.13;;;-3.16;100.00
30339;BME280;795;49.296;11.348;2022-12-18T10:44:23;97644.25;;;-3.71;100.00
30339;BME280;795;49.296;11.348;2022-12-18T10:47:04;97649.16;;;-3.87;100.00
30339;BME280;795;49.296;11.348;2022-12-18T10:49:50;97648.66;;;-4.24;100.00
30339;BME280;795;49.296;11.348;2022-12-18T10:52:26;97660.28;;;-4.07;100.00
30339;BME280;795;49.296;11.348;2022-12-18T10:55:04;97653.13;;;-4.02;100.00
30339;BME280;795;49.296;11.348;2022-12-18T10:57:38;97664.16;;;-3.90;100.00
30339;BME280;795;49.296;11.348;2022-12-18T11:00:30;97666.44;;;-3.81;100.00
30339;BME280;795;49.296;11.348;2022-12-18T11:02:57;97666.91;;;-3.69;100.00
30339;BME280;795;49.296;11.348;2022-12-18T11:05:33;97664.75;;;-3.33;100.00
30339;BME280;795;49.296;11.348;2022-12-18T11:08:01;97671.78;;;-3.33;100.00
30339;BME280;795;49.296;11.348;2022-12-18T11:10:36;97663.78;;;-3.06;100.00
30339;BME280;795;49.296;11.348;2022-12-18T11:13:20;97666.91;;;-2.73;100.00
30339;BME280;795;49.296;11.348;2022-12-18T11:15:49;97681.56;;;-2.23;100.00
30339;BME280;795;49.296;11.348;2022-12-18T11:18:27;97665.56;;;-1.53;100.00
30339;BME280;795;49.296;11.348;2022-12-18T11:23:36;97664.31;;;-0.48;100.00
30339;BME280;795;49.296;11.348;2022-12-18T11:26:05;97663.84;;;-0.02;97.19
30339;BME280;795;49.296;11.348;2022-12-18T11:28:49;97659.63;;;0.13;92.49
30339;BME280;795;49.296;11.348;2022-12-18T11:31:27;97656.31;;;0.26;89.17
30339;BME280;795;49.296;11.348;2022-12-18T11:34:30;97659.03;;;-0.11;89.90
30339;BME280;795;49.296;11.348;2022-12-18T11:37:02;97646.88;;;-0.51;92.27
30339;BME280;795;49.296;11.348;2022-12-18T11:40:03;97662.78;;;0.38;88.33
30339;BME280;795;49.296;11.348;2022-12-18T11:42:47;97654.25;;;-0.03;87.47
30339;BME280;795;49.296;11.348;2022-12-18T11:45:27;97655.19;;;-0.79;92.15
30339;BME280;795;49.296;11.348;2022-12-18T11:48:38;97650.44;;;-1.90;98.72
30339;BME280;795;49.296;11.348;2022-12-18T11:51:46;97643.34;;;-2.76;100.00
30339;BME280;795;49.296;11.348;2022-12-18T11:54:16;97643.44;;;-2.78;100.00
30339;BME280;795;49.296;11.348;2022-12-18T11:57:25;97634.19;;;-3.11;100.00
30339;BME280;795;49.296;11.348;2022-12-18T12:00:15;97629.94;;;-3.63;100.00
30339;BME280;795;49.296;11.348;2022-12-18T12:03:39;97634.22;;;-3.60;100.00
30339;BME280;795;49.296;11.348;2022-12-18T12:09:29;97609.88;;;-3.64;100.00
30339;BME280;795;49.296;11.348;2022-12-18T12:16:11;97595.41;;;-4.00;100.00
30339;BME280;795;49.296;11.348;2022-12-18T12:19:19;97612.97;;;-3.77;100.00
30339;BME280;795;49.296;11.348;2022-12-18T12:22:32;97615.91;;;-3.62;100.00
30339;BME280;795;49.296;11.348;2022-12-18T12:25:45;97610.47;;;-3.80;100.00
30339;BME280;795;49.296;11.348;2022-12-18T12:29:19;97612.59;;;-3.91;100.00
30339;BME280;795;49.296;11.348;2022-12-18T12:32:07;97604.34;;;-3.81;100.00
30339;BME280;795;49.296;11.348;2022-12-18T12:38:09;97597.75;;;-3.68;100.00
30339;BME280;795;49.296;11.348;2022-12-18T12:40:50;97595.56;;;-3.55;100.00
30339;BME280;795;49.296;11.348;2022-12-18T12:43:44;97596.38;;;-3.78;100.00
30339;BME280;795;49.296;11.348;2022-12-18T12:46:21;97609.59;;;-3.81;100.00
30339;BME280;795;49.296;11.348;2022-12-18T12:48:56;97606.47;;;-3.67;100.00
30339;BME280;795;49.296;11.348;2022-12-18T12:51:35;97603.22;;;-3.49;100.00
30339;BME280;795;49.296;11.348;2022-12-18T12:54:23;97605.00;;;-3.26;100.00
30339;BME280;795;49.296;11.348;2022-12-18T12:57:37;97605.69;;;-3.21;100.00
30339;BME280;795;49.296;11.348;2022-12-18T13:00:11;97604.00;;;-3.22;100.00
30339;BME280;795;49.296;11.348;2022-12-18T13:03:03;97597.69;;;-2.95;100.00
30339;BME280;795;49.296;11.348;2022-12-18T13:06:00;97598.53;;;-2.95;100.00
30339;BME280;795;49.296;11.348;2022-12-18T13:08:54;97597.00;;;-2.77;100.00
30339;BME280;795;49.296;11.348;2022-12-18T13:11:42;97586.47;;;-2.77;100.00
30339;BME280;795;49.296;11.348;2022-12-18T13:14:39;97578.69;;;-2.57;100.00
30339;BME280;795;49.296;11.348;2022-12-18T13:20:03;97590.59;;;-2.70;100.00
30339;BME280;795;49.296;11.348;2022-12-18T13:22:49;97598.59;;;-2.51;100.00
30339;BME280;795;49.296;11.348;2022-12-18T13:25:32;97599.13;;;-2.22;100.00
30339;BME280;795;49.296;11.348;2022-12-18T13:34:28;97580.66;;;-2.42;100.00
30339;BME280;795;49.296;11.348;2022-12-18T13:40:00;97577.06;;;-2.83;100.00
30339;BME280;795;49.296;11.348;2022-12-18T13:42:37;97579.91;;;-3.10;100.00
30339;BME280;795;49.296;11.348;2022-12-18T13:45:44;97584.00;;;-3.26;100.00
30339;BME280;795;49.296;11.348;2022-12-18T13:48:26;97592.09;;;-3.32;100.00
30339;BME280;795;49.296;11.348;2022-12-18T13:51:05;97596.66;;;-3.38;100.00
30339;BME280;795;49.296;11.348;2022-12-18T13:53:58;97590.53;;;-3.61;100.00
30339;BME280;795;49.296;11.348;2022-12-18T13:56:31;97581.44;;;-3.76;100.00
30339;BME280;795;49.296;11.348;2022-12-18T13:59:32;97584.09;;;-3.77;100.00
30339;BME280;795;49.296;11.348;2022-12-18T14:02:14;97582.88;;;-3.92;100.00
30339;BME280;795;49.296;11.348;2022-12-18T14:04:47;97588.44;;;-4.01;100.00
30339;BME280;795;49.296;11.348;2022-12-18T14:07:21;97579.25;;;-4.14;100.00
30339;BME280;795;49.296;11.348;2022-12-18T14:09:55;97581.88;;;-4.14;100.00
30339;BME280;795;49.296;11.348;2022-12-18T14:12:51;97588.41;;;-4.26;100.00
30339;BME280;795;49.296;11.348;2022-12-18T14:15:40;97571.00;;;-4.28;100.00
30339;BME280;795;49.296;11.348;2022-12-18T14:18:29;97573.84;;;-4.34;100.00
30339;BME280;795;49.296;11.348;2022-12-18T14:21:02;97569.56;;;-4.37;100.00
30339;BME280;795;49.296;11.348;2022-12-18T14:23:39;97568.84;;;-4.42;100.00
30339;BME280;795;49.296;11.348;2022-12-18T14:26:29;97563.00;;;-4.50;100.00
30339;BME280;795;49.296;11.348;2022-12-18T14:29:00;97572.81;;;-4.56;100.00
30339;BME280;795;49.296;11.348;2022-12-18T14:31:30;97556.31;;;-4.58;100.00
30339;BME280;795;49.296;11.348;2022-12-18T14:33:58;97560.75;;;-4.60;100.00